sensor_id;sensor_type;location;lat;lon;timestamp;temperature;humidity
10468;DHT22;5281;48.878;9.394;2023-05-21T00:01:18;17.80;99.90
10468;DHT22;5281;48.878;9.394;2023-05-21T00:03:44;17.70;99.90
10468;DHT22;5281;48.878;9.394;2023-05-21T00:06:11;17.70;99.90
10468;DHT22;5281;48.878;9.394;2023-05-21T00:08:40;17.60;99.90
10468;DHT22;5281;48.878;9.394;2023-05-21T00:11:08;17.70;99.90
10468;DHT22;5281;48.878;9.394;2023-05-21T00:13:35;17.70;99.90
10468;DHT22;5281;48.878;9.394;2023-05-21T00:16:03;17.60;99.90
10468;DHT22;5281;48.878;9.394;2023-05-21T00:18:30;17.60;99.90
10468;DHT22;5281;48.878;9.394;2023-05-21T00:20:58;17.60;99.90
10468;DHT22;5281;48.878;9.394;2023-05-21T00:23:26;17.60;99.90
10468;DHT22;5281;48.878;9.394;2023-05-21T00:25:52;17.60;99.90
10468;DHT22;5281;48.878;9.394;2023-05-21T00:28:21;17.60;99.90
10468;DHT22;5281;48.878;9.394;2023-05-21T00:30:47;17.60;99.90
10468;DHT22;5281;48.878;9.394;2023-05-21T00:33:14;17.60;99.90
10468;DHT22;5281;48.878;9.394;2023-05-21T00:35:41;17.50;99.90
10468;DHT22;5281;48.878;9.394;2023-05-21T00:38:08;17.50;99.90
10468;DHT22;5281;48.878;9.394;2023-05-21T00:40:35;17.50;99.90
10468;DHT22;5281;48.878;9.394;2023-05-21T00:43:05;17.50;99.90
10468;DHT22;5281;48.878;9.394;2023-05-21T00:45:35;17.40;99.90
10468;DHT22;5281;48.878;9.394;2023-05-21T00:48:03;17.40;99.90
10468;DHT22;5281;48.878;9.394;2023-05-21T00:50:31;17.30;99.90
10468;DHT22;5281;48.878;9.394;2023-05-21T00:52:58;17.30;99.90
10468;DHT22;5281;48.878;9.394;2023-05-21T00:55:25;17.30;99.90
10468;DHT22;5281;48.878;9.394;2023-05-21T00:57:53;17.30;99.90
10468;DHT22;5281;48.878;9.394;2023-05-21T01:00:20;17.20;99.90
10468;DHT22;5281;48.878;9.394;2023-05-21T01:02:50;17.20;99.90
10468;DHT22;5281;48.878;9.394;2023-05-21T01:05:17;17.20;99.90
10468;DHT22;5281;48.878;9.394;2023-05-21T01:07:46;17.20;99.90
10468;DHT22;5281;48.878;9.394;2023-05-21T01:10:13;17.20;99.90
10468;DHT22;5281;48.878;9.394;2023-05-21T01:12:42;17.20;99.90
10468;DHT22;5281;48.878;9.394;2023-05-21T01:15:10;17.20;99.90
10468;DHT22;5281;48.878;9.394;2023-05-21T01:17:37;17.20;99.90
10468;DHT22;5281;48.878;9.394;2023-05-21T01:20:08;17.20;99.90
10468;DHT22;5281;48.878;9.394;2023-05-21T01:22:38;17.20;99.90
10468;DHT22;5281;48.878;9.394;2023-05-21T01:25:09;17.10;99.90
10468;DHT22;5281;48.878;9.394;2023-05-21T01:27:36;17.10;99.90
10468;DHT22;5281;48.878;9.394;2023-05-21T01:30:04;17.10;99.90
10468;DHT22;5281;48.878;9.394;2023-05-21T01:32:33;17.10;99.90
10468;DHT22;5281;48.878;9.394;2023-05-21T01:35:07;17.10;99.90
10468;DHT22;5281;48.878;9.394;2023-05-21T01:37:36;17.00;99.90
10468;DHT22;5281;48.878;9.394;2023-05-21T01:40:11;17.00;99.90
10468;DHT22;5281;48.878;9.394;2023-05-21T01:42:42;17.00;99.90
10468;DHT22;5281;48.878;9.394;2023-05-21T01:45:11;16.90;99.90
10468;DHT22;5281;48.878;9.394;2023-05-21T01:47:41;16.90;99.90
10468;DHT22;5281;48.878;9.394;2023-05-21T01:50:10;16.90;99.90
10468;DHT22;5281;48.878;9.394;2023-05-21T01:52:37;16.80;99.90
10468;DHT22;5281;48.878;9.394;2023-05-21T01:55:06;16.80;99.90
10468;DHT22;5281;48.878;9.394;2023-05-21T01:57:34;16.80;99.90
10468;DHT22;5281;48.878;9.394;2023-05-21T02:00:01;16.80;99.90
10468;DHT22;5281;48.878;9.394;2023-05-21T02:02:29;16.70;99.90
10468;DHT22;5281;48.878;9.394;2023-05-21T02:04:56;16.70;99.90
10468;DHT22;5281;48.878;9.394;2023-05-21T02:07:23;16.70;99.90
10468;DHT22;5281;48.878;9.394;2023-05-21T02:09:53;16.60;99.90
10468;DHT22;5281;48.878;9.394;2023-05-21T02:12:20;16.60;99.90
10468;DHT22;5281;48.878;9.394;2023-05-21T02:14:48;16.50;99.90
10468;DHT22;5281;48.878;9.394;2023-05-21T02:17:15;16.40;99.90
10468;DHT22;5281;48.878;9.394;2023-05-21T02:19:43;16.30;99.90
10468;DHT22;5281;48.878;9.394;2023-05-21T02:22:10;16.30;99.90
10468;DHT22;5281;48.878;9.394;2023-05-21T02:24:37;16.30;99.90
10468;DHT22;5281;48.878;9.394;2023-05-21T02:27:04;16.30;99.90
10468;DHT22;5281;48.878;9.394;2023-05-21T02:29:31;16.20;99.90
10468;DHT22;5281;48.878;9.394;2023-05-21T02:32:00;16.20;99.90
10468;DHT22;5281;48.878;9.394;2023-05-21T02:34:26;16.20;99.90
10468;DHT22;5281;48.878;9.394;2023-05-21T02:36:55;16.20;99.90
10468;DHT22;5281;48.878;9.394;2023-05-21T02:39:23;16.10;99.90
10468;DHT22;5281;48.878;9.394;2023-05-21T02:41:50;16.00;99.90
10468;DHT22;5281;48.878;9.394;2023-05-21T02:44:17;16.00;99.90
10468;DHT22;5281;48.878;9.394;2023-05-21T02:46:45;15.90;99.90
10468;DHT22;5281;48.878;9.394;2023-05-21T02:49:13;15.80;99.90
10468;DHT22;5281;48.878;9.394;2023-05-21T02:51:40;15.70;99.90
10468;DHT22;5281;48.878;9.394;2023-05-21T02:54:07;15.70;99.90
10468;DHT22;5281;48.878;9.394;2023-05-21T02:56:34;15.70;99.90
10468;DHT22;5281;48.878;9.394;2023-05-21T02:59:00;15.70;99.90
10468;DHT22;5281;48.878;9.394;2023-05-21T03:01:27;15.80;99.90
10468;DHT22;5281;48.878;9.394;2023-05-21T03:03:54;15.80;99.90
10468;DHT22;5281;48.878;9.394;2023-05-21T03:06:22;15.80;99.90
10468;DHT22;5281;48.878;9.394;2023-05-21T03:08:49;15.90;99.90
10468;DHT22;5281;48.878;9.394;2023-05-21T03:11:17;15.80;99.90
10468;DHT22;5281;48.878;9.394;2023-05-21T03:13:44;15.80;99.90
10468;DHT22;5281;48.878;9.394;2023-05-21T03:16:11;15.80;99.90
10468;DHT22;5281;48.878;9.394;2023-05-21T03:18:38;15.70;99.90
10468;DHT22;5281;48.878;9.394;2023-05-21T03:21:05;15.70;99.90
10468;DHT22;5281;48.878;9.394;2023-05-21T03:23:33;15.70;99.90
10468;DHT22;5281;48.878;9.394;2023-05-21T03:26:00;15.70;99.90
10468;DHT22;5281;48.878;9.394;2023-05-21T03:28:27;15.60;99.90
10468;DHT22;5281;48.878;9.394;2023-05-21T03:30:54;15.60;99.90
10468;DHT22;5281;48.878;9.394;2023-05-21T03:33:21;15.60;99.90
10468;DHT22;5281;48.878;9.394;2023-05-21T03:35:48;15.50;99.90
10468;DHT22;5281;48.878;9.394;2023-05-21T03:38:15;15.40;99.90
10468;DHT22;5281;48.878;9.394;2023-05-21T03:40:43;15.40;99.90
10468;DHT22;5281;48.878;9.394;2023-05-21T03:43:10;15.40;99.90
10468;DHT22;5281;48.878;9.394;2023-05-21T03:45:36;15.40;99.90
10468;DHT22;5281;48.878;9.394;2023-05-21T03:48:04;15.40;99.90
10468;DHT22;5281;48.878;9.394;2023-05-21T03:50:30;15.30;99.90
10468;DHT22;5281;48.878;9.394;2023-05-21T03:52:57;15.30;99.90
10468;DHT22;5281;48.878;9.394;2023-05-21T03:55:24;15.30;99.90
10468;DHT22;5281;48.878;9.394;2023-05-21T03:57:52;15.20;99.90
10468;DHT22;5281;48.878;9.394;2023-05-21T04:00:19;15.20;99.90
10468;DHT22;5281;48.878;9.394;2023-05-21T04:02:46;15.20;99.90
10468;DHT22;5281;48.878;9.394;2023-05-21T04:05:13;15.20;99.90
10468;DHT22;5281;48.878;9.394;2023-05-21T04:07:39;15.20;99.90
10468;DHT22;5281;48.878;9.394;2023-05-21T04:10:07;15.20;99.90
10468;DHT22;5281;48.878;9.394;2023-05-21T04:12:34;15.20;99.90
10468;DHT22;5281;48.878;9.394;2023-05-21T04:15:03;15.20;99.90
10468;DHT22;5281;48.878;9.394;2023-05-21T04:17:30;15.30;99.90
10468;DHT22;5281;48.878;9.394;2023-05-21T04:19:57;15.20;99.90
10468;DHT22;5281;48.878;9.394;2023-05-21T04:22:24;15.30;99.90
10468;DHT22;5281;48.878;9.394;2023-05-21T04:24:51;15.30;99.90
10468;DHT22;5281;48.878;9.394;2023-05-21T04:27:20;15.30;99.90
10468;DHT22;5281;48.878;9.394;2023-05-21T04:29:48;15.30;99.90
10468;DHT22;5281;48.878;9.394;2023-05-21T04:32:16;15.40;99.90
10468;DHT22;5281;48.878;9.394;2023-05-21T04:34:43;15.50;99.90
10468;DHT22;5281;48.878;9.394;2023-05-21T04:37:10;15.50;99.90
10468;DHT22;5281;48.878;9.394;2023-05-21T04:39:36;15.60;99.90
10468;DHT22;5281;48.878;9.394;2023-05-21T04:42:05;15.70;99.90
10468;DHT22;5281;48.878;9.394;2023-05-21T04:44:35;15.70;99.90
10468;DHT22;5281;48.878;9.394;2023-05-21T04:47:02;15.70;99.90
10468;DHT22;5281;48.878;9.394;2023-05-21T04:49:30;15.80;99.90
10468;DHT22;5281;48.878;9.394;2023-05-21T04:51:59;15.80;99.90
10468;DHT22;5281;48.878;9.394;2023-05-21T04:54:26;15.90;99.90
10468;DHT22;5281;48.878;9.394;2023-05-21T04:56:53;15.90;99.90
10468;DHT22;5281;48.878;9.394;2023-05-21T04:59:20;16.00;99.90
10468;DHT22;5281;48.878;9.394;2023-05-21T05:01:47;15.90;99.90
10468;DHT22;5281;48.878;9.394;2023-05-21T05:04:13;16.10;99.90
10468;DHT22;5281;48.878;9.394;2023-05-21T05:06:42;16.10;99.90
10468;DHT22;5281;48.878;9.394;2023-05-21T05:09:08;16.20;99.90
10468;DHT22;5281;48.878;9.394;2023-05-21T05:11:35;16.30;99.90
10468;DHT22;5281;48.878;9.394;2023-05-21T05:14:02;16.40;99.90
10468;DHT22;5281;48.878;9.394;2023-05-21T05:16:28;16.50;99.90
10468;DHT22;5281;48.878;9.394;2023-05-21T05:18:55;16.70;99.90
10468;DHT22;5281;48.878;9.394;2023-05-21T05:21:22;16.80;99.90
10468;DHT22;5281;48.878;9.394;2023-05-21T05:23:50;16.90;99.90
10468;DHT22;5281;48.878;9.394;2023-05-21T05:26:17;17.10;99.90
10468;DHT22;5281;48.878;9.394;2023-05-21T05:28:44;17.20;99.90
10468;DHT22;5281;48.878;9.394;2023-05-21T05:31:11;17.30;99.90
10468;DHT22;5281;48.878;9.394;2023-05-21T05:33:38;17.50;99.90
10468;DHT22;5281;48.878;9.394;2023-05-21T05:36:06;17.60;99.90
10468;DHT22;5281;48.878;9.394;2023-05-21T05:38:33;17.80;99.90
10468;DHT22;5281;48.878;9.394;2023-05-21T05:41:01;18.00;99.90
10468;DHT22;5281;48.878;9.394;2023-05-21T05:43:28;18.20;99.90
10468;DHT22;5281;48.878;9.394;2023-05-21T05:45:55;18.40;99.90
10468;DHT22;5281;48.878;9.394;2023-05-21T05:48:22;18.70;99.90
10468;DHT22;5281;48.878;9.394;2023-05-21T05:50:48;19.00;99.90
10468;DHT22;5281;48.878;9.394;2023-05-21T05:53:19;19.30;99.90
10468;DHT22;5281;48.878;9.394;2023-05-21T05:55:45;19.50;99.90
10468;DHT22;5281;48.878;9.394;2023-05-21T05:58:14;19.40;99.90
10468;DHT22;5281;48.878;9.394;2023-05-21T06:00:40;19.60;99.90
10468;DHT22;5281;48.878;9.394;2023-05-21T06:03:07;19.90;99.90
10468;DHT22;5281;48.878;9.394;2023-05-21T06:05:34;20.00;99.90
10468;DHT22;5281;48.878;9.394;2023-05-21T06:08:01;19.90;99.90
10468;DHT22;5281;48.878;9.394;2023-05-21T06:10:27;19.90;99.90
10468;DHT22;5281;48.878;9.394;2023-05-21T06:12:54;19.70;99.90
10468;DHT22;5281;48.878;9.394;2023-05-21T06:15:22;19.90;99.90
10468;DHT22;5281;48.878;9.394;2023-05-21T06:17:49;20.20;99.90
10468;DHT22;5281;48.878;9.394;2023-05-21T06:20:16;20.60;99.90
10468;DHT22;5281;48.878;9.394;2023-05-21T06:22:43;21.30;99.90
10468;DHT22;5281;48.878;9.394;2023-05-21T06:25:09;22.10;99.90
10468;DHT22;5281;48.878;9.394;2023-05-21T06:27:36;22.90;99.90
10468;DHT22;5281;48.878;9.394;2023-05-21T06:30:04;23.80;99.90
10468;DHT22;5281;48.878;9.394;2023-05-21T06:32:33;24.70;99.90
10468;DHT22;5281;48.878;9.394;2023-05-21T06:34:59;24.90;99.90
10468;DHT22;5281;48.878;9.394;2023-05-21T06:37:26;24.70;99.90
10468;DHT22;5281;48.878;9.394;2023-05-21T06:39:53;24.80;99.90
10468;DHT22;5281;48.878;9.394;2023-05-21T06:42:20;26.10;99.90
10468;DHT22;5281;48.878;9.394;2023-05-21T06:44:46;27.80;99.90
10468;DHT22;5281;48.878;9.394;2023-05-21T06:47:13;29.40;99.90
10468;DHT22;5281;48.878;9.394;2023-05-21T06:49:41;30.30;99.00
10468;DHT22;5281;48.878;9.394;2023-05-21T06:52:08;30.70;97.50
10468;DHT22;5281;48.878;9.394;2023-05-21T06:54:35;31.40;95.80
10468;DHT22;5281;48.878;9.394;2023-05-21T06:57:02;32.40;93.30
10468;DHT22;5281;48.878;9.394;2023-05-21T06:59:29;33.60;89.60
10468;DHT22;5281;48.878;9.394;2023-05-21T07:01:56;34.50;81.90
10468;DHT22;5281;48.878;9.394;2023-05-21T07:04:23;35.30;77.40
10468;DHT22;5281;48.878;9.394;2023-05-21T07:06:51;36.10;72.90
10468;DHT22;5281;48.878;9.394;2023-05-21T07:09:18;36.50;70.20
10468;DHT22;5281;48.878;9.394;2023-05-21T07:11:44;36.30;67.70
10468;DHT22;5281;48.878;9.394;2023-05-21T07:14:11;36.00;67.50
10468;DHT22;5281;48.878;9.394;2023-05-21T07:16:38;35.70;66.40
10468;DHT22;5281;48.878;9.394;2023-05-21T07:19:05;35.20;66.80
10468;DHT22;5281;48.878;9.394;2023-05-21T07:21:31;34.60;66.50
10468;DHT22;5281;48.878;9.394;2023-05-21T07:23:59;34.10;67.60
10468;DHT22;5281;48.878;9.394;2023-05-21T07:26:26;33.60;67.60
10468;DHT22;5281;48.878;9.394;2023-05-21T07:28:53;32.90;69.80
10468;DHT22;5281;48.878;9.394;2023-05-21T07:31:19;32.40;70.80
10468;DHT22;5281;48.878;9.394;2023-05-21T07:33:46;32.20;70.70
10468;DHT22;5281;48.878;9.394;2023-05-21T07:36:13;31.80;72.00
10468;DHT22;5281;48.878;9.394;2023-05-21T07:38:39;31.70;71.80
10468;DHT22;5281;48.878;9.394;2023-05-21T07:41:07;32.00;71.40
10468;DHT22;5281;48.878;9.394;2023-05-21T07:43:34;32.30;70.20
10468;DHT22;5281;48.878;9.394;2023-05-21T07:46:01;32.80;69.30
10468;DHT22;5281;48.878;9.394;2023-05-21T07:48:28;32.60;68.40
10468;DHT22;5281;48.878;9.394;2023-05-21T07:50:54;32.20;68.90
10468;DHT22;5281;48.878;9.394;2023-05-21T07:53:22;32.00;69.40
10468;DHT22;5281;48.878;9.394;2023-05-21T07:55:49;31.80;70.40
10468;DHT22;5281;48.878;9.394;2023-05-21T07:58:17;31.90;69.90
10468;DHT22;5281;48.878;9.394;2023-05-21T08:00:46;32.10;68.70
10468;DHT22;5281;48.878;9.394;2023-05-21T08:03:13;32.50;68.20
10468;DHT22;5281;48.878;9.394;2023-05-21T08:05:41;32.70;66.60
10468;DHT22;5281;48.878;9.394;2023-05-21T08:08:09;32.80;66.40
10468;DHT22;5281;48.878;9.394;2023-05-21T08:10:36;32.80;65.70
10468;DHT22;5281;48.878;9.394;2023-05-21T08:13:03;33.00;65.80
10468;DHT22;5281;48.878;9.394;2023-05-21T08:15:31;33.30;65.20
10468;DHT22;5281;48.878;9.394;2023-05-21T08:17:57;33.60;64.00
10468;DHT22;5281;48.878;9.394;2023-05-21T08:20:24;33.80;63.60
10468;DHT22;5281;48.878;9.394;2023-05-21T08:22:51;34.00;62.40
10468;DHT22;5281;48.878;9.394;2023-05-21T08:25:19;33.70;62.60
10468;DHT22;5281;48.878;9.394;2023-05-21T08:27:46;33.30;62.50
10468;DHT22;5281;48.878;9.394;2023-05-21T08:30:12;32.20;65.00
10468;DHT22;5281;48.878;9.394;2023-05-21T08:32:40;31.60;65.70
10468;DHT22;5281;48.878;9.394;2023-05-21T08:35:08;31.30;66.60
10468;DHT22;5281;48.878;9.394;2023-05-21T08:37:35;31.20;66.90
10468;DHT22;5281;48.878;9.394;2023-05-21T08:40:02;31.10;67.30
10468;DHT22;5281;48.878;9.394;2023-05-21T08:42:38;30.90;67.50
10468;DHT22;5281;48.878;9.394;2023-05-21T08:45:05;30.40;69.00
10468;DHT22;5281;48.878;9.394;2023-05-21T08:47:34;30.20;70.00
10468;DHT22;5281;48.878;9.394;2023-05-21T08:50:03;30.10;70.10
10468;DHT22;5281;48.878;9.394;2023-05-21T08:52:30;29.90;70.30
10468;DHT22;5281;48.878;9.394;2023-05-21T08:54:57;29.70;71.00
10468;DHT22;5281;48.878;9.394;2023-05-21T08:57:26;29.70;71.40
10468;DHT22;5281;48.878;9.394;2023-05-21T08:59:53;29.70;71.70
10468;DHT22;5281;48.878;9.394;2023-05-21T09:02:20;29.60;72.20
10468;DHT22;5281;48.878;9.394;2023-05-21T09:04:50;29.30;72.50
10468;DHT22;5281;48.878;9.394;2023-05-21T09:07:23;29.20;72.80
10468;DHT22;5281;48.878;9.394;2023-05-21T09:09:54;29.00;73.30
10468;DHT22;5281;48.878;9.394;2023-05-21T09:12:22;29.00;73.30
10468;DHT22;5281;48.878;9.394;2023-05-21T09:14:49;29.10;73.30
10468;DHT22;5281;48.878;9.394;2023-05-21T09:17:16;29.10;73.00
10468;DHT22;5281;48.878;9.394;2023-05-21T09:20:04;29.00;73.60
10468;DHT22;5281;48.878;9.394;2023-05-21T09:22:35;28.90;74.00
10468;DHT22;5281;48.878;9.394;2023-05-21T09:25:04;28.70;75.10
10468;DHT22;5281;48.878;9.394;2023-05-21T09:27:32;28.40;75.80
10468;DHT22;5281;48.878;9.394;2023-05-21T09:30:00;28.20;76.40
10468;DHT22;5281;48.878;9.394;2023-05-21T09:32:26;28.40;77.20
10468;DHT22;5281;48.878;9.394;2023-05-21T09:34:53;28.70;76.30
10468;DHT22;5281;48.878;9.394;2023-05-21T09:37:20;29.10;76.20
10468;DHT22;5281;48.878;9.394;2023-05-21T09:39:49;29.40;74.90
10468;DHT22;5281;48.878;9.394;2023-05-21T09:42:15;29.60;74.10
10468;DHT22;5281;48.878;9.394;2023-05-21T09:44:46;29.60;74.10
10468;DHT22;5281;48.878;9.394;2023-05-21T09:47:18;29.60;74.50
10468;DHT22;5281;48.878;9.394;2023-05-21T09:49:45;29.30;74.90
10468;DHT22;5281;48.878;9.394;2023-05-21T09:52:12;28.90;75.90
10468;DHT22;5281;48.878;9.394;2023-05-21T09:54:39;28.50;76.60
10468;DHT22;5281;48.878;9.394;2023-05-21T09:57:07;28.30;77.20
10468;DHT22;5281;48.878;9.394;2023-05-21T09:59:37;28.20;77.80
10468;DHT22;5281;48.878;9.394;2023-05-21T10:02:15;28.10;78.10
10468;DHT22;5281;48.878;9.394;2023-05-21T10:04:43;28.10;77.60
10468;DHT22;5281;48.878;9.394;2023-05-21T10:07:13;28.10;77.30
10468;DHT22;5281;48.878;9.394;2023-05-21T10:09:42;28.10;77.90
10468;DHT22;5281;48.878;9.394;2023-05-21T10:12:12;28.10;78.20
10468;DHT22;5281;48.878;9.394;2023-05-21T10:14:40;28.20;78.50
10468;DHT22;5281;48.878;9.394;2023-05-21T10:17:08;28.50;77.70
10468;DHT22;5281;48.878;9.394;2023-05-21T10:19:36;28.60;77.30
10468;DHT22;5281;48.878;9.394;2023-05-21T10:22:03;28.60;77.80
10468;DHT22;5281;48.878;9.394;2023-05-21T10:24:31;28.60;77.80
10468;DHT22;5281;48.878;9.394;2023-05-21T10:26:59;28.60;78.00
10468;DHT22;5281;48.878;9.394;2023-05-21T10:29:30;28.30;78.00
10468;DHT22;5281;48.878;9.394;2023-05-21T10:31:58;28.20;78.60
10468;DHT22;5281;48.878;9.394;2023-05-21T10:34:27;28.00;78.00
10468;DHT22;5281;48.878;9.394;2023-05-21T10:36:54;27.90;78.70
10468;DHT22;5281;48.878;9.394;2023-05-21T10:39:23;27.80;79.40
10468;DHT22;5281;48.878;9.394;2023-05-21T10:41:55;27.70;80.20
10468;DHT22;5281;48.878;9.394;2023-05-21T10:44:37;27.70;80.30
10468;DHT22;5281;48.878;9.394;2023-05-21T10:47:28;27.80;80.30
10468;DHT22;5281;48.878;9.394;2023-05-21T10:50:14;27.80;80.80
10468;DHT22;5281;48.878;9.394;2023-05-21T10:52:54;27.70;80.60
10468;DHT22;5281;48.878;9.394;2023-05-21T10:55:34;27.70;81.20
10468;DHT22;5281;48.878;9.394;2023-05-21T11:00:58;28.00;80.80
10468;DHT22;5281;48.878;9.394;2023-05-21T11:03:26;28.30;80.50
10468;DHT22;5281;48.878;9.394;2023-05-21T11:05:54;28.40;80.70
10468;DHT22;5281;48.878;9.394;2023-05-21T11:08:22;28.50;79.80
10468;DHT22;5281;48.878;9.394;2023-05-21T11:10:53;28.80;79.50
10468;DHT22;5281;48.878;9.394;2023-05-21T11:13:22;29.00;78.60
10468;DHT22;5281;48.878;9.394;2023-05-21T11:16:05;29.20;78.40
10468;DHT22;5281;48.878;9.394;2023-05-21T11:19:02;29.30;78.30
10468;DHT22;5281;48.878;9.394;2023-05-21T11:21:30;29.30;78.60
10468;DHT22;5281;48.878;9.394;2023-05-21T11:24:01;29.40;78.30
10468;DHT22;5281;48.878;9.394;2023-05-21T11:26:31;29.60;77.50
10468;DHT22;5281;48.878;9.394;2023-05-21T11:29:17;29.80;77.00
10468;DHT22;5281;48.878;9.394;2023-05-21T11:31:46;29.90;75.90
10468;DHT22;5281;48.878;9.394;2023-05-21T11:34:14;30.10;75.40
10468;DHT22;5281;48.878;9.394;2023-05-21T11:36:43;30.20;75.90
10468;DHT22;5281;48.878;9.394;2023-05-21T11:39:11;30.10;70.90
10468;DHT22;5281;48.878;9.394;2023-05-21T11:41:58;30.10;70.10
10468;DHT22;5281;48.878;9.394;2023-05-21T11:44:37;29.80;72.30
10468;DHT22;5281;48.878;9.394;2023-05-21T11:47:06;29.90;74.30
10468;DHT22;5281;48.878;9.394;2023-05-21T11:49:34;30.00;75.70
10468;DHT22;5281;48.878;9.394;2023-05-21T11:52:02;30.20;75.60
10468;DHT22;5281;48.878;9.394;2023-05-21T11:54:30;30.30;75.40
10468;DHT22;5281;48.878;9.394;2023-05-21T11:57:00;30.30;75.20
10468;DHT22;5281;48.878;9.394;2023-05-21T11:59:27;30.30;75.00
10468;DHT22;5281;48.878;9.394;2023-05-21T12:01:54;30.40;74.20
10468;DHT22;5281;48.878;9.394;2023-05-21T12:04:22;30.50;73.80
10468;DHT22;5281;48.878;9.394;2023-05-21T12:06:49;30.50;72.80
10468;DHT22;5281;48.878;9.394;2023-05-21T12:09:16;30.50;72.90
10468;DHT22;5281;48.878;9.394;2023-05-21T12:11:42;30.60;70.20
10468;DHT22;5281;48.878;9.394;2023-05-21T12:14:09;30.40;65.60
10468;DHT22;5281;48.878;9.394;2023-05-21T12:16:37;30.30;64.70
10468;DHT22;5281;48.878;9.394;2023-05-21T12:19:04;30.10;64.90
10468;DHT22;5281;48.878;9.394;2023-05-21T12:21:33;30.00;66.50
10468;DHT22;5281;48.878;9.394;2023-05-21T12:24:01;29.90;67.00
10468;DHT22;5281;48.878;9.394;2023-05-21T12:26:28;30.00;65.90
10468;DHT22;5281;48.878;9.394;2023-05-21T12:28:57;30.10;65.90
10468;DHT22;5281;48.878;9.394;2023-05-21T12:31:24;30.30;65.00
10468;DHT22;5281;48.878;9.394;2023-05-21T12:33:52;30.30;63.60
10468;DHT22;5281;48.878;9.394;2023-05-21T12:36:24;30.30;61.30
10468;DHT22;5281;48.878;9.394;2023-05-21T12:38:53;30.20;61.70
10468;DHT22;5281;48.878;9.394;2023-05-21T12:41:21;30.00;61.00
10468;DHT22;5281;48.878;9.394;2023-05-21T12:43:48;29.90;62.00
10468;DHT22;5281;48.878;9.394;2023-05-21T12:46:16;29.80;62.70
10468;DHT22;5281;48.878;9.394;2023-05-21T12:48:47;29.90;63.00
10468;DHT22;5281;48.878;9.394;2023-05-21T12:51:14;30.00;63.30
10468;DHT22;5281;48.878;9.394;2023-05-21T12:53:41;30.20;63.60
10468;DHT22;5281;48.878;9.394;2023-05-21T12:56:11;30.50;63.20
10468;DHT22;5281;48.878;9.394;2023-05-21T12:58:38;30.60;62.30
10468;DHT22;5281;48.878;9.394;2023-05-21T13:01:06;30.70;62.40
10468;DHT22;5281;48.878;9.394;2023-05-21T13:03:33;30.60;62.90
10468;DHT22;5281;48.878;9.394;2023-05-21T13:06:00;30.70;62.20
10468;DHT22;5281;48.878;9.394;2023-05-21T13:08:28;30.80;62.10
10468;DHT22;5281;48.878;9.394;2023-05-21T13:10:55;31.00;61.10
10468;DHT22;5281;48.878;9.394;2023-05-21T13:13:23;30.80;61.50
10468;DHT22;5281;48.878;9.394;2023-05-21T13:15:49;30.80;62.40
10468;DHT22;5281;48.878;9.394;2023-05-21T13:18:16;30.80;62.90
10468;DHT22;5281;48.878;9.394;2023-05-21T13:20:45;30.90;63.80
10468;DHT22;5281;48.878;9.394;2023-05-21T13:23:13;31.00;63.30
10468;DHT22;5281;48.878;9.394;2023-05-21T13:25:39;31.00;63.60
10468;DHT22;5281;48.878;9.394;2023-05-21T13:28:06;31.00;62.30
10468;DHT22;5281;48.878;9.394;2023-05-21T13:30:36;30.90;61.10
10468;DHT22;5281;48.878;9.394;2023-05-21T13:33:02;30.90;60.70
10468;DHT22;5281;48.878;9.394;2023-05-21T13:35:29;30.90;59.90
10468;DHT22;5281;48.878;9.394;2023-05-21T13:37:56;30.80;59.80
10468;DHT22;5281;48.878;9.394;2023-05-21T13:40:23;30.80;58.70
10468;DHT22;5281;48.878;9.394;2023-05-21T13:42:49;30.70;57.30
10468;DHT22;5281;48.878;9.394;2023-05-21T13:45:18;30.70;57.40
10468;DHT22;5281;48.878;9.394;2023-05-21T13:47:46;30.90;57.50
10468;DHT22;5281;48.878;9.394;2023-05-21T13:50:14;31.00;59.10
10468;DHT22;5281;48.878;9.394;2023-05-21T13:52:40;30.90;59.50
10468;DHT22;5281;48.878;9.394;2023-05-21T13:55:08;31.00;60.20
10468;DHT22;5281;48.878;9.394;2023-05-21T13:57:35;30.90;61.10
10468;DHT22;5281;48.878;9.394;2023-05-21T14:00:02;30.80;61.90
10468;DHT22;5281;48.878;9.394;2023-05-21T14:02:29;30.50;62.60
10468;DHT22;5281;48.878;9.394;2023-05-21T14:04:57;30.40;63.10
10468;DHT22;5281;48.878;9.394;2023-05-21T14:07:23;30.40;64.40
10468;DHT22;5281;48.878;9.394;2023-05-21T14:09:50;30.30;65.00
10468;DHT22;5281;48.878;9.394;2023-05-21T14:12:17;30.30;64.70
10468;DHT22;5281;48.878;9.394;2023-05-21T14:14:44;30.20;65.00
10468;DHT22;5281;48.878;9.394;2023-05-21T14:17:14;30.20;65.80
10468;DHT22;5281;48.878;9.394;2023-05-21T14:19:40;30.20;65.00
10468;DHT22;5281;48.878;9.394;2023-05-21T14:22:08;30.10;65.60
10468;DHT22;5281;48.878;9.394;2023-05-21T14:24:35;30.10;65.50
10468;DHT22;5281;48.878;9.394;2023-05-21T14:27:02;30.20;65.90
10468;DHT22;5281;48.878;9.394;2023-05-21T14:29:29;30.10;66.00
10468;DHT22;5281;48.878;9.394;2023-05-21T14:31:55;30.10;67.00
10468;DHT22;5281;48.878;9.394;2023-05-21T14:34:22;30.10;65.60
10468;DHT22;5281;48.878;9.394;2023-05-21T14:36:49;30.00;66.10
10468;DHT22;5281;48.878;9.394;2023-05-21T14:39:17;30.00;65.80
10468;DHT22;5281;48.878;9.394;2023-05-21T14:41:43;30.00;65.50
10468;DHT22;5281;48.878;9.394;2023-05-21T14:44:10;29.90;66.20
10468;DHT22;5281;48.878;9.394;2023-05-21T14:46:37;29.60;66.60
10468;DHT22;5281;48.878;9.394;2023-05-21T14:49:04;29.60;66.60
10468;DHT22;5281;48.878;9.394;2023-05-21T14:51:31;29.50;67.00
10468;DHT22;5281;48.878;9.394;2023-05-21T14:53:57;29.60;67.40
10468;DHT22;5281;48.878;9.394;2023-05-21T14:56:25;29.50;66.80
10468;DHT22;5281;48.878;9.394;2023-05-21T14:58:52;29.40;66.90
10468;DHT22;5281;48.878;9.394;2023-05-21T15:01:19;29.30;67.30
10468;DHT22;5281;48.878;9.394;2023-05-21T15:03:46;29.30;67.50
10468;DHT22;5281;48.878;9.394;2023-05-21T15:06:13;29.30;67.90
10468;DHT22;5281;48.878;9.394;2023-05-21T15:08:40;29.40;67.80
10468;DHT22;5281;48.878;9.394;2023-05-21T15:11:06;29.50;67.60
10468;DHT22;5281;48.878;9.394;2023-05-21T15:13:35;29.60;67.20
10468;DHT22;5281;48.878;9.394;2023-05-21T15:16:02;29.60;66.90
10468;DHT22;5281;48.878;9.394;2023-05-21T15:18:29;29.50;67.30
10468;DHT22;5281;48.878;9.394;2023-05-21T15:20:56;29.50;67.10
10468;DHT22;5281;48.878;9.394;2023-05-21T15:23:23;29.50;66.70
10468;DHT22;5281;48.878;9.394;2023-05-21T15:25:50;29.40;68.00
10468;DHT22;5281;48.878;9.394;2023-05-21T15:28:16;29.30;68.70
10468;DHT22;5281;48.878;9.394;2023-05-21T15:30:45;29.30;69.50
10468;DHT22;5281;48.878;9.394;2023-05-21T15:33:11;29.20;69.40
10468;DHT22;5281;48.878;9.394;2023-05-21T15:35:38;29.10;69.50
10468;DHT22;5281;48.878;9.394;2023-05-21T15:38:05;29.00;69.40
10468;DHT22;5281;48.878;9.394;2023-05-21T15:40:31;28.90;70.10
10468;DHT22;5281;48.878;9.394;2023-05-21T15:42:58;28.80;70.40
10468;DHT22;5281;48.878;9.394;2023-05-21T15:45:25;28.70;72.00
10468;DHT22;5281;48.878;9.394;2023-05-21T15:47:53;28.50;72.80
10468;DHT22;5281;48.878;9.394;2023-05-21T15:50:20;28.50;73.20
10468;DHT22;5281;48.878;9.394;2023-05-21T15:52:46;28.40;73.30